createdAt,value
2018-09-18T00:02:19.490Z,76.28
2018-09-18T00:04:48.069Z,76.32
2018-09-18T00:07:16.964Z,76.20
2018-09-18T00:09:45.462Z,75.81
2018-09-18T00:12:14.074Z,75.87
2018-09-18T00:14:42.580Z,75.32
2018-09-18T00:17:11.117Z,75.49
2018-09-18T00:19:39.643Z,75.17
2018-09-18T00:22:08.237Z,74.50
2018-09-18T00:24:36.764Z,75.49
2018-09-18T00:27:05.346Z,75.55
2018-09-18T00:29:33.957Z,75.18
2018-09-18T00:32:02.660Z,75.77
2018-09-18T00:34:31.407Z,76.34
2018-09-18T00:37:00.050Z,75.81
2018-09-18T00:39:28.589Z,76.18
2018-09-18T00:41:57.152Z,76.41
2018-09-18T00:44:25.681Z,76.83
2018-09-18T00:46:54.222Z,76.08
2018-09-18T00:49:22.925Z,76.71
2018-09-18T00:51:51.432Z,77.40
2018-09-18T00:54:19.946Z,77.24
2018-09-18T00:56:48.506Z,76.87
2018-09-18T00:59:17.010Z,76.99
2018-09-18T01:01:45.533Z,77.55
2018-09-18T01:04:14.085Z,77.26
2018-09-18T01:06:42.661Z,77.31
2018-09-18T01:09:11.565Z,77.97
2018-09-18T01:11:40.493Z,78.12
2018-09-18T01:14:09.010Z,78.28
2018-09-18T01:16:37.905Z,78.64
2018-09-18T01:19:06.612Z,78.66
2018-09-18T01:21:35.143Z,77.99
2018-09-18T01:24:03.760Z,78.68
2018-09-18T01:26:32.268Z,78.78
2018-09-18T01:29:00.846Z,78.63
2018-09-18T01:31:29.695Z,78.72
2018-09-18T01:33:58.217Z,78.90
2018-09-18T01:36:26.789Z,79.60
2018-09-18T01:38:55.394Z,78.58
2018-09-18T01:41:23.956Z,79.22
2018-09-18T01:43:52.547Z,79.02
2018-09-18T01:46:22.184Z,79.01
2018-09-18T01:48:50.791Z,79.37
2018-09-18T01:51:19.314Z,80.00
2018-09-18T01:53:47.824Z,79.69
2018-09-18T01:56:16.465Z,80.29
2018-09-18T01:58:45.032Z,80.00
2018-09-18T02:01:14.350Z,80.43
2018-09-18T02:03:43.087Z,80.48
2018-09-18T02:06:11.624Z,80.54
2018-09-18T02:08:40.212Z,80.10
2018-09-18T02:11:08.669Z,80.39
2018-09-18T02:13:37.177Z,80.32
2018-09-18T02:16:05.717Z,80.70
2018-09-18T02:18:34.214Z,79.96
2018-09-18T02:21:02.772Z,80.28
2018-09-18T02:23:31.676Z,80.65
2018-09-18T02:26:00.151Z,80.27
2018-09-18T02:28:28.918Z,80.15
2018-09-18T02:30:58.266Z,80.74
2018-09-18T02:33:26.982Z,80.38
2018-09-18T02:35:55.506Z,81.15
2018-09-18T02:38:24.212Z,81.34
2018-09-18T02:40:52.724Z,80.77
2018-09-18T02:43:21.505Z,81.02
2018-09-18T02:45:50.016Z,80.67
2018-09-18T02:48:18.706Z,81.00
2018-09-18T02:50:47.176Z,81.48
2018-09-18T02:53:15.690Z,81.39
2018-09-18T02:55:44.200Z,80.26
2018-09-18T02:58:12.932Z,80.11
2018-09-18T03:00:41.526Z,80.68
2018-09-18T03:03:10.008Z,79.96
2018-09-18T03:05:38.519Z,79.80
2018-09-18T03:08:07.592Z,79.46
2018-09-18T03:10:36.100Z,79.69
2018-09-18T03:13:04.636Z,78.99
2018-09-18T03:15:33.229Z,78.64
2018-09-18T03:18:01.824Z,79.13
2018-09-18T03:20:30.337Z,77.97
2018-09-18T03:22:58.900Z,77.49
2018-09-18T03:25:27.409Z,76.33
2018-09-18T03:27:55.976Z,77.02
2018-09-18T03:30:24.959Z,75.80
2018-09-18T03:32:53.533Z,75.10
2018-09-18T03:35:22.025Z,75.16
2018-09-18T03:37:50.578Z,74.67
2018-09-18T03:40:19.128Z,74.42
2018-09-18T03:42:47.733Z,73.32
2018-09-18T03:45:16.264Z,73.25
2018-09-18T03:47:44.872Z,71.55
2018-09-18T03:50:13.399Z,71.44
2018-09-18T03:52:41.893Z,71.63
2018-09-18T03:55:10.428Z,71.18
2018-09-18T03:57:39.222Z,71.43
2018-09-18T04:00:07.962Z,71.53
2018-09-18T04:02:36.483Z,70.27
2018-09-18T04:05:05.481Z,70.97
2018-09-18T04:07:34.140Z,70.80
2018-09-18T04:10:02.638Z,71.53
2018-09-18T04:12:33.260Z,70.78
2018-09-18T04:15:01.971Z,71.14
2018-09-18T04:17:30.673Z,70.98
2018-09-18T04:19:59.244Z,70.39
2018-09-18T04:22:27.748Z,71.08
2018-09-18T04:24:56.274Z,71.12
2018-09-18T04:27:24.788Z,70.38
2018-09-18T04:29:53.320Z,70.54
2018-09-18T04:32:21.839Z,70.64
2018-09-18T04:34:51.407Z,70.32
2018-09-18T04:37:20.010Z,70.21
2018-09-18T04:39:48.685Z,70.91
2018-09-18T04:42:17.195Z,71.09
2018-09-18T04:44:45.751Z,70.04
2018-09-18T04:47:14.538Z,70.99
2018-09-18T04:49:43.306Z,70.19
2018-09-18T04:52:11.846Z,70.26
2018-09-18T04:54:40.422Z,69.92
2018-09-18T04:57:09.024Z,70.53
2018-09-18T04:59:37.672Z,70.83
2018-09-18T05:02:06.384Z,70.63
2018-09-18T05:04:35.201Z,70.33
2018-09-18T05:07:03.705Z,70.19
2018-09-18T05:09:32.309Z,70.19
2018-09-18T05:12:00.872Z,70.52
2018-09-18T05:14:29.379Z,69.85
2018-09-18T05:16:58.117Z,70.20
2018-09-18T05:19:26.633Z,70.79
2018-09-18T05:21:55.244Z,70.06
2018-09-18T05:24:23.828Z,69.53
2018-09-18T05:26:52.354Z,69.23
2018-09-18T05:29:20.940Z,69.16
2018-09-18T05:31:49.530Z,69.05
2018-09-18T05:34:18.389Z,69.39
2018-09-18T05:36:46.938Z,68.85
2018-09-18T05:39:15.497Z,69.57
2018-09-18T05:41:44.145Z,68.83
2018-09-18T05:44:12.784Z,69.66
2018-09-18T05:46:41.334Z,69.37
2018-09-18T05:49:09.831Z,69.39
2018-09-18T05:51:38.375Z,69.19
2018-09-18T05:54:06.916Z,69.10
2018-09-18T05:56:35.689Z,69.34
2018-09-18T05:59:04.243Z,68.35
2018-09-18T06:01:32.728Z,68.07
2018-09-18T06:04:01.251Z,68.42
2018-09-18T06:06:29.749Z,68.02
2018-09-18T06:08:58.731Z,67.45
2018-09-18T06:11:27.205Z,66.83
2018-09-18T06:13:55.741Z,66.20
2018-09-18T06:16:24.248Z,66.05
2018-09-18T06:18:52.943Z,66.13
2018-09-18T06:21:21.581Z,65.58
2018-09-18T06:23:50.228Z,65.74
2018-09-18T06:26:18.815Z,65.75
2018-09-18T06:28:47.522Z,65.48
2018-09-18T06:31:16.013Z,65.19
2018-09-18T06:33:44.501Z,65.10
2018-09-18T06:36:13.202Z,64.50
2018-09-18T06:38:41.701Z,63.93
2018-09-18T06:41:10.212Z,64.54
2018-09-18T06:43:38.781Z,63.77
2018-09-18T06:46:07.707Z,63.94
2018-09-18T06:48:36.599Z,64.20
2018-09-18T06:51:05.106Z,64.37
2018-09-18T06:53:33.644Z,63.85
2018-09-18T06:56:02.170Z,63.59
2018-09-18T06:58:30.762Z,63.51
2018-09-18T07:00:59.411Z,63.33
2018-09-18T07:03:27.931Z,63.59
2018-09-18T07:05:56.460Z,63.67
2018-09-18T07:08:25.220Z,63.75
2018-09-18T07:10:53.698Z,62.78
2018-09-18T07:13:22.202Z,62.79
2018-09-18T07:15:50.709Z,62.13
2018-09-18T07:18:19.227Z,61.87
2018-09-18T07:20:47.809Z,60.95
2018-09-18T07:23:16.307Z,61.64
2018-09-18T07:25:44.931Z,60.83
2018-09-18T07:28:14.621Z,61.42
2018-09-18T07:30:43.150Z,60.65
2018-09-18T07:33:11.647Z,59.51
2018-09-18T07:35:40.154Z,60.18
2018-09-18T07:38:08.863Z,59.99
2018-09-18T07:40:37.346Z,59.96
2018-09-18T07:43:06.107Z,59.41
2018-09-18T07:45:34.609Z,58.33
2018-09-18T07:48:03.076Z,57.60
2018-09-18T07:50:31.945Z,57.54
2018-09-18T07:53:00.432Z,56.55
2018-09-18T07:55:28.982Z,55.78
2018-09-18T07:57:57.476Z,55.81
2018-09-18T08:00:25.993Z,54.82
2018-09-18T08:02:54.547Z,55.13
2018-09-18T08:05:23.165Z,54.86
2018-09-18T08:07:51.692Z,54.89
2018-09-18T08:10:20.238Z,52.50
2018-09-18T08:12:48.731Z,52.84
2018-09-18T08:15:23.585Z,52.88
2018-09-18T08:17:52.088Z,51.71
2018-09-18T08:20:20.579Z,51.51
2018-09-18T08:22:49.182Z,52.07
2018-09-18T08:25:17.811Z,50.77
2018-09-18T08:27:46.247Z,51.45
2018-09-18T08:30:14.775Z,51.72
2018-09-18T08:32:43.407Z,50.17
2018-09-18T08:35:11.841Z,50.76
2018-09-18T08:37:40.316Z,50.42
2018-09-18T08:40:09.076Z,50.60
2018-09-18T08:42:38.003Z,49.26
2018-09-18T08:45:06.691Z,48.64
2018-09-18T08:47:35.816Z,47.73
2018-09-18T08:50:04.647Z,46.52
2018-09-18T08:52:33.157Z,46.32
2018-09-18T08:55:01.701Z,46.81
2018-09-18T08:57:30.259Z,45.40
2018-09-18T08:59:58.945Z,44.54
2018-09-18T09:02:28.201Z,43.99
2018-09-18T09:04:56.723Z,43.67
2018-09-18T09:07:25.456Z,44.06
2018-09-18T09:09:54.071Z,44.38
2018-09-18T09:12:22.606Z,44.69
2018-09-18T09:14:51.148Z,43.43
2018-09-18T09:17:19.645Z,43.24
2018-09-18T09:19:48.127Z,44.20
2018-09-18T09:22:17.004Z,42.98
2018-09-18T09:24:45.553Z,43.96
2018-09-18T09:27:14.051Z,42.74
2018-09-18T09:29:42.613Z,43.22
2018-09-18T09:32:11.176Z,44.35
2018-09-18T09:34:39.623Z,42.34
2018-09-18T09:37:08.193Z,44.02
2018-09-18T09:39:36.634Z,42.47
2018-09-18T09:42:05.174Z,41.76
2018-09-18T09:44:33.660Z,41.59
2018-09-18T09:47:02.125Z,41.42
2018-09-18T09:49:30.653Z,41.43
2018-09-18T09:51:59.361Z,41.12
2018-09-18T09:54:27.845Z,41.46
2018-09-18T09:56:56.366Z,40.61
2018-09-18T09:59:25.013Z,41.08
2018-09-18T10:01:58.809Z,41.69
2018-09-18T10:04:27.319Z,39.88
2018-09-18T10:06:55.851Z,40.21
2018-09-18T10:09:24.357Z,40.17
2018-09-18T10:11:52.853Z,41.19
2018-09-18T10:14:21.752Z,41.02
2018-09-18T10:16:50.205Z,41.18
2018-09-18T10:19:18.793Z,40.49
2018-09-18T10:21:47.323Z,40.06
2018-09-18T10:24:15.864Z,40.25
2018-09-18T10:26:44.468Z,40.18
2018-09-18T10:29:12.940Z,40.64
2018-09-18T10:31:41.800Z,40.41
2018-09-18T10:34:10.295Z,40.10
2018-09-18T10:36:38.828Z,41.97
2018-09-18T10:39:08.996Z,40.84
2018-09-18T10:41:37.545Z,40.75
2018-09-18T10:44:06.082Z,41.21
2018-09-18T10:46:34.597Z,41.13
2018-09-18T10:49:03.179Z,42.23
2018-09-18T10:51:31.932Z,42.46
2018-09-18T10:54:00.432Z,42.40
2018-09-18T10:56:28.925Z,41.21
2018-09-18T10:58:57.797Z,41.00
2018-09-18T11:01:26.331Z,41.28
2018-09-18T11:03:55.034Z,40.62
2018-09-18T11:06:23.591Z,42.02
2018-09-18T11:08:52.135Z,41.87
2018-09-18T11:11:20.688Z,40.44
2018-09-18T11:13:49.310Z,41.40
2018-09-18T11:16:17.700Z,42.07
2018-09-18T11:18:46.279Z,41.97
2018-09-18T11:21:14.908Z,42.14
2018-09-18T11:23:43.472Z,41.44
2018-09-18T11:26:11.931Z,41.84
2018-09-18T11:28:40.511Z,40.13
2018-09-18T11:31:09.085Z,41.62
2018-09-18T11:33:37.648Z,41.08
2018-09-18T11:36:06.272Z,41.00
2018-09-18T11:38:34.769Z,42.02
2018-09-18T11:41:03.362Z,40.66
2018-09-18T11:43:31.894Z,40.13
2018-09-18T11:46:00.621Z,40.82
2018-09-18T11:48:29.015Z,40.89
2018-09-18T11:50:57.924Z,40.17
2018-09-18T11:53:26.434Z,40.51
2018-09-18T11:55:55.084Z,40.00
2018-09-18T11:58:23.663Z,39.97
2018-09-18T12:00:52.302Z,38.70
2018-09-18T12:03:20.865Z,39.20
2018-09-18T12:05:49.485Z,38.08
2018-09-18T12:08:18.052Z,39.09
2018-09-18T12:10:46.552Z,37.07
2018-09-18T12:13:15.083Z,37.70
2018-09-18T12:15:43.592Z,36.16
2018-09-18T12:18:12.195Z,34.40
2018-09-18T12:20:40.757Z,33.69
2018-09-18T12:23:09.363Z,31.26
2018-09-18T12:25:37.970Z,31.94
2018-09-18T12:28:06.473Z,32.18
2018-09-18T12:30:35.942Z,30.59
2018-09-18T12:33:04.725Z,29.29
2018-09-18T12:35:33.368Z,29.26
2018-09-18T12:38:01.850Z,29.41
2018-09-18T12:40:30.369Z,28.64
2018-09-18T12:42:58.924Z,30.30
2018-09-18T12:45:27.469Z,31.29
2018-09-18T12:47:56.043Z,30.41
2018-09-18T12:50:24.675Z,31.05
2018-09-18T12:52:53.052Z,30.66
2018-09-18T12:55:21.610Z,28.62
2018-09-18T12:57:50.157Z,27.88
2018-09-18T13:00:18.847Z,29.38
2018-09-18T13:02:47.274Z,28.67
2018-09-18T13:05:15.850Z,28.19
2018-09-18T13:07:44.358Z,29.00
2018-09-18T13:10:12.924Z,30.04
2018-09-18T13:12:41.571Z,28.04
2018-09-18T13:15:10.084Z,26.01
2018-09-18T13:17:38.846Z,27.57
2018-09-18T13:20:07.408Z,26.69
2018-09-18T13:22:35.944Z,27.14
2018-09-18T13:25:04.881Z,26.59
2018-09-18T13:27:33.390Z,27.62
2018-09-18T13:30:01.956Z,25.96
2018-09-18T13:32:30.453Z,26.25
2018-09-18T13:34:58.980Z,26.90
2018-09-18T13:37:27.534Z,25.63
2018-09-18T13:39:56.065Z,25.93
2018-09-18T13:42:24.571Z,26.18
2018-09-18T13:44:53.184Z,25.62
2018-09-18T13:47:21.768Z,24.85
2018-09-18T13:49:50.317Z,24.90
2018-09-18T13:52:18.875Z,24.03
2018-09-18T13:54:47.396Z,23.48
2018-09-18T13:57:15.932Z,25.86
2018-09-18T13:59:44.538Z,26.04
2018-09-18T14:02:13.069Z,26.05
2018-09-18T14:04:41.632Z,26.55
2018-09-18T14:07:10.407Z,28.79
2018-09-18T14:09:38.960Z,25.58
2018-09-18T14:12:07.591Z,26.76
2018-09-18T14:14:36.181Z,25.88
2018-09-18T14:17:04.716Z,24.94
2018-09-18T14:19:33.186Z,25.53
2018-09-18T14:22:01.768Z,24.17
2018-09-18T14:24:30.293Z,26.44
2018-09-18T14:26:58.829Z,24.86
2018-09-18T14:29:27.376Z,26.60
2018-09-18T14:31:55.898Z,27.37
2018-09-18T14:34:24.461Z,25.96
2018-09-18T14:36:53.257Z,26.19
2018-09-18T14:39:21.885Z,28.25
2018-09-18T14:41:50.519Z,26.57
2018-09-18T14:44:19.159Z,25.58
2018-09-18T14:46:47.742Z,25.67
2018-09-18T14:49:16.329Z,25.10
2018-09-18T14:51:44.862Z,24.75
2018-09-18T14:54:13.601Z,24.85
2018-09-18T14:56:42.120Z,26.45
2018-09-18T14:59:10.729Z,28.41
2018-09-18T15:01:39.335Z,26.72
2018-09-18T15:04:08.096Z,26.11
2018-09-18T15:06:36.663Z,26.31
2018-09-18T15:09:09.145Z,26.18
2018-09-18T15:11:37.749Z,26.97
2018-09-18T15:14:06.411Z,25.59
2018-09-18T15:16:35.389Z,25.54
2018-09-18T15:19:04.039Z,26.36
2018-09-18T15:21:32.580Z,28.38
2018-09-18T15:24:01.163Z,27.78
2018-09-18T15:26:29.665Z,26.68
2018-09-18T15:28:58.173Z,27.92
2018-09-18T15:31:26.698Z,29.57
2018-09-18T15:33:55.259Z,29.18
2018-09-18T15:36:23.842Z,29.40
2018-09-18T15:38:52.446Z,30.63
2018-09-18T15:41:20.925Z,29.51
2018-09-18T15:43:49.488Z,30.22
2018-09-18T15:46:19.855Z,32.22
2018-09-18T15:48:48.377Z,32.70
2018-09-18T15:51:17.002Z,32.29
2018-09-18T15:53:45.542Z,31.05
2018-09-18T15:56:14.039Z,30.64
2018-09-18T15:58:42.583Z,29.01
2018-09-18T16:01:11.181Z,29.38
2018-09-18T16:03:39.706Z,29.08
2018-09-18T16:06:08.292Z,29.35
2018-09-18T16:08:36.857Z,27.32
2018-09-18T16:11:05.382Z,27.10
2018-09-18T16:13:34.022Z,28.77
2018-09-18T16:16:02.664Z,27.16
2018-09-18T16:18:31.199Z,27.12
2018-09-18T16:20:59.723Z,28.07
2018-09-18T16:23:28.252Z,28.98
2018-09-18T16:25:56.825Z,27.41
2018-09-18T16:28:25.323Z,27.67
2018-09-18T16:30:54.015Z,27.74
2018-09-18T16:33:22.564Z,29.02
2018-09-18T16:35:51.093Z,29.47
2018-09-18T16:38:19.566Z,29.31
2018-09-18T16:40:48.257Z,29.70
2018-09-18T16:43:16.710Z,31.81
2018-09-18T16:45:45.317Z,31.84
2018-09-18T16:48:13.852Z,33.24
2018-09-18T16:50:42.617Z,35.28
2018-09-18T16:53:11.204Z,35.78
2018-09-18T16:55:39.681Z,35.82
2018-09-18T16:58:08.345Z,37.66
2018-09-18T17:00:36.964Z,38.31
2018-09-18T17:03:05.816Z,38.31
2018-09-18T17:05:34.340Z,39.16
2018-09-18T17:08:02.909Z,40.22
2018-09-18T17:10:31.563Z,39.79
2018-09-18T17:13:00.035Z,39.89
2018-09-18T17:15:28.573Z,40.58
2018-09-18T17:17:57.105Z,41.05
2018-09-18T17:20:25.624Z,41.29
2018-09-18T17:22:54.252Z,42.40
2018-09-18T17:25:22.951Z,42.61
2018-09-18T17:27:51.502Z,42.86
2018-09-18T17:30:20.056Z,43.71
2018-09-18T17:32:48.606Z,43.95
2018-09-18T17:35:17.138Z,44.64
2018-09-18T17:37:45.666Z,44.90
2018-09-18T17:40:14.275Z,45.48
2018-09-18T17:42:42.872Z,45.74
2018-09-18T17:45:11.428Z,46.02
2018-09-18T17:47:39.943Z,45.62
2018-09-18T17:50:08.508Z,47.17
2018-09-18T17:52:37.089Z,47.17
2018-09-18T17:55:05.793Z,46.85
2018-09-18T17:57:34.414Z,47.60
2018-09-18T18:00:03.024Z,47.40
2018-09-18T18:02:31.578Z,47.83
2018-09-18T18:05:00.219Z,47.99
2018-09-18T18:07:28.823Z,49.75
2018-09-18T18:09:57.366Z,49.97
2018-09-18T18:12:26.893Z,50.08
2018-09-18T18:14:55.575Z,50.48
2018-09-18T18:17:24.157Z,51.98
2018-09-18T18:19:52.621Z,52.19
2018-09-18T18:22:21.397Z,52.30
2018-09-18T18:24:50.168Z,53.22
2018-09-18T18:27:18.699Z,53.81
2018-09-18T18:29:47.225Z,54.57
2018-09-18T18:32:15.800Z,55.10
2018-09-18T18:34:44.467Z,54.61
2018-09-18T18:37:13.057Z,54.74
2018-09-18T18:39:41.681Z,55.04
2018-09-18T18:42:10.393Z,55.43
2018-09-18T18:44:39.196Z,56.56
2018-09-18T18:47:07.807Z,56.57
2018-09-18T18:49:37.863Z,57.01
2018-09-18T18:52:07.208Z,57.20
2018-09-18T18:54:36.021Z,56.62
2018-09-18T18:57:05.103Z,57.75
2018-09-18T18:59:33.735Z,57.93
2018-09-18T19:02:02.910Z,57.95
2018-09-18T19:04:31.869Z,58.06
2018-09-18T19:07:00.647Z,58.25
2018-09-18T19:09:29.700Z,57.82
2018-09-18T19:11:58.353Z,57.58
2018-09-18T19:14:27.075Z,58.51
2018-09-18T19:16:55.682Z,58.33
2018-09-18T19:19:25.018Z,57.86
2018-09-18T19:21:54.051Z,57.98
2018-09-18T19:24:22.661Z,58.08
2018-09-18T19:26:51.289Z,58.41
2018-09-18T19:29:19.861Z,58.13
2018-09-18T19:31:48.429Z,58.59
2018-09-18T19:34:17.001Z,59.70
2018-09-18T19:36:46.068Z,59.60
2018-09-18T19:39:14.746Z,59.84
2018-09-18T19:41:43.292Z,60.49
2018-09-18T19:44:11.948Z,59.89
2018-09-18T19:46:41.202Z,61.05
2018-09-18T19:49:10.155Z,60.82
2018-09-18T19:51:39.824Z,60.67
2018-09-18T19:54:08.361Z,61.74
2018-09-18T19:56:37.033Z,60.93
2018-09-18T19:59:05.590Z,62.23
2018-09-18T20:01:34.281Z,63.14
2018-09-18T20:04:02.962Z,63.63
2018-09-18T20:06:31.657Z,63.65
2018-09-18T20:09:00.318Z,64.96
2018-09-18T20:11:29.262Z,65.07
2018-09-18T20:13:57.928Z,66.50
2018-09-18T20:16:27.152Z,66.30
2018-09-18T20:18:55.786Z,66.96
2018-09-18T20:21:24.414Z,67.09
2018-09-18T20:23:53.032Z,67.08
2018-09-18T20:26:21.606Z,67.54
2018-09-18T20:28:50.331Z,67.42
2018-09-18T20:31:18.844Z,67.83
2018-09-18T20:33:47.376Z,66.57
2018-09-18T20:36:16.170Z,67.06
2018-09-18T20:38:44.660Z,66.39
2018-09-18T20:41:13.299Z,65.93
2018-09-18T20:43:42.070Z,66.81
2018-09-18T20:46:10.573Z,66.75
2018-09-18T20:48:39.063Z,67.05
2018-09-18T20:51:07.577Z,67.07
2018-09-18T20:53:36.273Z,66.81
2018-09-18T20:56:04.843Z,65.92
2018-09-18T20:58:33.403Z,66.29
2018-09-18T21:01:02.239Z,66.16
2018-09-18T21:03:30.740Z,67.22
2018-09-18T21:05:59.226Z,66.64
2018-09-18T21:08:27.824Z,66.62
2018-09-18T21:10:56.457Z,65.76
2018-09-18T21:13:25.317Z,65.73
2018-09-18T21:15:53.837Z,66.32
2018-09-18T21:18:22.355Z,66.23
2018-09-18T21:20:51.016Z,66.25
2018-09-18T21:23:19.457Z,67.29
2018-09-18T21:26:05.724Z,67.20
2018-09-18T21:28:34.418Z,67.06
2018-09-18T21:31:02.915Z,66.13
2018-09-18T21:33:32.076Z,66.72
2018-09-18T21:36:01.109Z,66.94
2018-09-18T21:38:30.017Z,65.39
2018-09-18T21:40:58.945Z,66.30
2018-09-18T21:43:28.321Z,66.84
2018-09-18T21:45:56.876Z,65.85
2018-09-18T21:48:25.469Z,64.79
2018-09-18T21:50:53.994Z,65.30
2018-09-18T21:53:22.619Z,65.82
2018-09-18T21:55:51.165Z,65.61
2018-09-18T21:58:19.706Z,65.84
2018-09-18T22:00:48.267Z,65.84
2018-09-18T22:03:16.797Z,66.01
2018-09-18T22:05:45.294Z,66.35
2018-09-18T22:08:13.851Z,66.88
2018-09-18T22:10:42.375Z,66.45
2018-09-18T22:13:10.861Z,66.83
2018-09-18T22:15:39.369Z,66.99
2018-09-18T22:18:08.037Z,67.09
2018-09-18T22:20:36.688Z,67.04
2018-09-18T22:23:05.260Z,67.36
2018-09-18T22:25:34.135Z,67.59
2018-09-18T22:28:02.619Z,67.65
2018-09-18T22:30:31.274Z,67.93
2018-09-18T22:32:59.948Z,68.24
2018-09-18T22:35:28.445Z,67.95
2018-09-18T22:37:57.352Z,68.17
2018-09-18T22:40:25.877Z,68.94
2018-09-18T22:42:54.520Z,69.76
2018-09-18T22:45:23.066Z,69.52
2018-09-18T22:47:51.614Z,69.75
2018-09-18T22:50:20.128Z,69.37
2018-09-18T22:52:48.693Z,69.82
2018-09-18T22:55:17.193Z,70.67
2018-09-18T22:57:45.810Z,71.40
2018-09-18T23:00:14.369Z,71.37
2018-09-18T23:02:42.885Z,70.90
2018-09-18T23:05:11.547Z,70.30
2018-09-18T23:07:40.012Z,70.69
2018-09-18T23:10:08.506Z,71.22
2018-09-18T23:12:37.093Z,71.63
2018-09-18T23:15:05.662Z,71.70
2018-09-18T23:17:34.184Z,72.08
2018-09-18T23:20:03.229Z,71.43
2018-09-18T23:22:31.703Z,72.12
2018-09-18T23:25:00.212Z,71.41
2018-09-18T23:27:28.754Z,71.45
2018-09-18T23:29:57.393Z,71.64
2018-09-18T23:32:26.066Z,72.54
2018-09-18T23:34:54.533Z,72.19
2018-09-18T23:37:23.468Z,72.55
2018-09-18T23:39:51.949Z,73.32
2018-09-18T23:42:20.530Z,72.53
2018-09-18T23:44:48.977Z,73.28
2018-09-18T23:47:17.548Z,72.42
2018-09-18T23:49:46.124Z,73.29
2018-09-18T23:52:15.178Z,73.60
2018-09-18T23:54:43.774Z,73.73
2018-09-18T23:57:12.312Z,73.12
2018-09-18T23:59:40.925Z,73.52
